Time;durP1;ratioP1;P1;durP2;ratioP2;P2;SDS_P1;SDS_P2;PMS_P1;PMS_P2;Temp;Humidity;BMP_temperature;BMP_pressure;BME280_temperature;BME280_humidity;BME280_pressure;Samples;Min_cycle;Max_cycle;Signal;HPM_P1;HPM_P2
2023/05/02 00:02:02;;;;;;;11.97;10.77;;;18.90;37.20;;;;;;5094790;28;20651;-52
2023/05/02 00:04:28;;;;;;;11.18;9.95;;;18.90;36.90;;;;;;5095073;28;20398;-52
2023/05/02 00:06:53;;;;;;;13.07;11.77;;;18.80;37.00;;;;;;5095286;28;20720;-52
2023/05/02 00:09:20;;;;;;;12.30;11.00;;;18.80;37.00;;;;;;5094818;28;20917;-52
2023/05/02 00:11:46;;;;;;;13.55;10.88;;;18.80;37.10;;;;;;5094996;28;20176;-51
2023/05/02 00:14:12;;;;;;;11.73;10.50;;;18.90;37.40;;;;;;5094715;28;20183;-52
2023/05/02 00:16:37;;;;;;;12.60;11.47;;;18.90;37.50;;;;;;5094739;28;20406;-52
2023/05/02 00:19:03;;;;;;;10.20;9.20;;;18.90;37.30;;;;;;5094623;28;20495;-52
2023/05/02 00:21:30;;;;;;;14.03;10.87;;;18.90;37.50;;;;;;5094572;28;20422;-52
2023/05/02 00:23:56;;;;;;;11.98;10.55;;;18.90;37.40;;;;;;5094745;28;20402;-52
2023/05/02 00:26:22;;;;;;;11.67;10.53;;;18.90;37.50;;;;;;5094864;28;20532;-52
2023/05/02 00:28:48;;;;;;;13.57;11.23;;;19.00;37.60;;;;;;5094579;28;20485;-52
2023/05/02 00:31:15;;;;;;;11.63;10.50;;;18.90;37.60;;;;;;5094174;28;20804;-52
2023/05/02 00:33:41;;;;;;;11.98;10.75;;;19.00;37.70;;;;;;5094481;28;20180;-52
2023/05/02 00:36:17;;;;;;;11.67;10.47;;;19.00;37.90;;;;;;5094675;28;20272;-53
2023/05/02 00:38:44;;;;;;;12.68;11.07;;;19.00;38.00;;;;;;5094358;28;20221;-52
2023/05/02 00:41:10;;;;;;;14.18;12.68;;;19.00;38.30;;;;;;5094519;28;20540;-52
2023/05/02 00:43:38;;;;;;;12.43;11.20;;;18.90;38.00;;;;;;5094019;28;20232;-52
2023/05/02 00:46:04;;;;;;;11.55;10.32;;;18.90;37.90;;;;;;5094303;28;20429;-52
2023/05/02 00:48:29;;;;;;;16.60;11.47;;;18.90;37.70;;;;;;5094203;28;20648;-52
2023/05/02 00:50:56;;;;;;;12.00;10.77;;;18.80;37.70;;;;;;5094148;28;20777;-52
2023/05/02 00:53:22;;;;;;;12.38;11.23;;;18.80;37.90;;;;;;5093463;28;20412;-52
2023/05/02 00:55:48;;;;;;;12.87;11.53;;;18.80;37.70;;;;;;5094341;28;20250;-52
2023/05/02 00:58:18;;;;;;;14.10;11.55;;;18.80;37.60;;;;;;5094061;28;20456;-52
2023/05/02 01:01:25;;;;;;;12.30;9.10;;;18.80;37.60;;;;;;5093826;28;20624;-52
2023/05/02 01:04:30;;;;;;;10.52;9.50;;;18.80;37.80;;;;;;5093506;28;20587;-52
2023/05/02 01:07:28;;;;;;;15.07;10.50;;;18.80;37.80;;;;;;5093777;28;20188;-52
2023/05/02 01:10:36;;;;;;;14.70;11.38;;;18.80;37.60;;;;;;5093707;28;20224;-52
2023/05/02 01:13:17;;;;;;;12.45;10.30;;;18.80;37.40;;;;;;5093324;28;20719;-52
2023/05/02 01:15:45;;;;;;;12.07;10.82;;;18.70;37.90;;;;;;5093977;28;20205;-52
2023/05/02 01:18:14;;;;;;;12.38;11.07;;;18.70;37.90;;;;;;5093486;28;20235;-52
2023/05/02 01:20:43;;;;;;;11.18;10.13;;;18.70;37.80;;;;;;5093488;28;20184;-52
2023/05/02 01:23:30;;;;;;;11.52;10.43;;;18.70;37.70;;;;;;5093528;28;20180;-52
2023/05/02 01:26:25;;;;;;;10.95;9.95;;;18.70;37.60;;;;;;5093408;28;20174;-52
2023/05/02 01:29:02;;;;;;;11.73;9.73;;;18.70;37.50;;;;;;5093700;28;20203;-52
2023/05/02 01:31:35;;;;;;;12.57;10.18;;;18.70;37.70;;;;;;5093126;28;20641;-52
2023/05/02 01:34:03;;;;;;;11.77;9.90;;;18.70;38.00;;;;;;5093457;28;20164;-52
2023/05/02 01:36:31;;;;;;;10.70;9.63;;;18.70;38.20;;;;;;5093227;28;20172;-52
2023/05/02 01:39:00;;;;;;;10.25;9.25;;;18.60;38.30;;;;;;5093357;28;20199;-52
2023/05/02 01:41:27;;;;;;;12.25;11.05;;;18.70;38.30;;;;;;5092981;28;20215;-52
2023/05/02 01:43:57;;;;;;;9.65;8.68;;;18.70;38.60;;;;;;5092909;28;20180;-52
2023/05/02 01:46:30;;;;;;;11.63;10.02;;;18.70;38.90;;;;;;5092951;28;20172;-52
2023/05/02 01:48:57;;;;;;;11.13;9.70;;;18.70;38.90;;;;;;5093012;28;20573;-52
2023/05/02 01:51:30;;;;;;;14.38;12.15;;;18.70;38.80;;;;;;5092845;28;20211;-52
2023/05/02 01:54:00;;;;;;;14.25;12.85;;;18.60;38.50;;;;;;5092746;28;20239;-52
2023/05/02 01:56:28;;;;;;;11.30;10.20;;;18.50;38.30;;;;;;5092769;28;20179;-52
2023/05/02 01:58:56;;;;;;;11.73;10.55;;;18.40;37.80;;;;;;5092728;28;20537;-52
2023/05/02 02:01:26;;;;;;;13.15;11.23;;;18.40;38.40;;;;;;5092986;28;20207;-53
2023/05/02 02:03:55;;;;;;;15.05;9.48;;;18.40;38.80;;;;;;5092614;28;20716;-52
2023/05/02 02:06:21;;;;;;;13.48;12.23;;;18.40;39.00;;;;;;5092221;28;20168;-52
2023/05/02 02:08:47;;;;;;;13.50;11.07;;;18.40;39.10;;;;;;5092772;28;20183;-52
2023/05/02 02:11:23;;;;;;;12.50;11.20;;;18.40;39.00;;;;;;5092506;28;20263;-52
2023/05/02 02:13:58;;;;;;;13.23;11.82;;;18.40;39.10;;;;;;5092691;28;20182;-52
2023/05/02 02:16:30;;;;;;;11.70;9.70;;;18.40;39.20;;;;;;5092684;28;20554;-52
2023/05/02 02:18:57;;;;;;;10.75;9.85;;;18.40;39.30;;;;;;5092401;28;20199;-52
2023/05/02 02:21:27;;;;;;;12.93;10.88;;;18.40;39.00;;;;;;5092312;28;20660;-52
2023/05/02 02:23:56;;;;;;;13.27;12.13;;;18.30;39.30;;;;;;5092163;28;20187;-52
2023/05/02 02:26:22;;;;;;;12.30;11.18;;;18.40;39.10;;;;;;5092524;28;20171;-52
2023/05/02 02:28:48;;;;;;;13.98;12.15;;;18.30;39.80;;;;;;5092397;28;20168;-52
2023/05/02 02:31:14;;;;;;;13.10;11.70;;;18.30;39.30;;;;;;5092252;28;20218;-52
2023/05/02 02:33:40;;;;;;;12.80;11.50;;;18.30;39.50;;;;;;5092146;28;20183;-52
2023/05/02 02:36:14;;;;;;;13.10;11.50;;;18.30;39.50;;;;;;5092183;28;20406;-52
2023/05/02 02:39:05;;;;;;;12.27;11.10;;;18.30;39.60;;;;;;5092444;28;20453;-52
2023/05/02 02:41:44;;;;;;;11.82;10.73;;;18.30;39.50;;;;;;5092407;28;20191;-52
2023/05/02 02:44:33;;;;;;;13.48;10.98;;;18.30;39.60;;;;;;5092201;28;20182;-52
2023/05/02 02:47:08;;;;;;;13.25;11.10;;;18.30;39.60;;;;;;5092230;28;20202;-52
2023/05/02 02:49:59;;;;;;;11.52;10.32;;;18.30;39.60;;;;;;5092121;28;20659;-52
2023/05/02 02:52:54;;;;;;;11.52;10.50;;;18.20;39.10;;;;;;5091955;28;20210;-52
2023/05/02 02:55:44;;;;;;;12.52;11.20;;;18.20;39.10;;;;;;5090632;28;20176;-52
2023/05/02 02:58:28;;;;;;;11.90;10.70;;;18.20;40.00;;;;;;5092272;28;20202;-52
2023/05/02 03:00:54;;;;;;;13.27;12.00;;;18.20;39.00;;;;;;5091958;28;20188;-52
2023/05/02 03:03:27;;;;;;;14.20;10.57;;;18.10;38.80;;;;;;5091712;28;20233;-52
2023/05/02 03:05:55;;;;;;;10.80;9.70;;;18.10;38.60;;;;;;5092281;28;20175;-52
2023/05/02 03:08:21;;;;;;;12.02;9.75;;;18.10;38.30;;;;;;5092199;28;20693;-52
2023/05/02 03:10:47;;;;;;;11.25;9.05;;;18.10;38.20;;;;;;5091909;28;20187;-52
2023/05/02 03:13:12;;;;;;;11.10;9.10;;;18.10;38.10;;;;;;5092018;28;20195;-52
2023/05/02 03:15:54;;;;;;;11.90;10.20;;;18.10;38.00;;;;;;5091814;28;20179;-52
2023/05/02 03:18:19;;;;;;;10.80;9.70;;;18.10;37.80;;;;;;5096061;28;20203;-52
2023/05/02 03:20:45;;;;;;;14.70;10.37;;;18.10;38.00;;;;;;5095840;28;20198;-52
2023/05/02 03:23:11;;;;;;;11.60;10.40;;;18.10;37.80;;;;;;5095671;28;20261;-51
2023/05/02 03:25:37;;;;;;;10.20;9.20;;;18.10;37.70;;;;;;5095819;28;20410;-51
2023/05/02 03:28:03;;;;;;;10.60;9.52;;;18.10;37.70;;;;;;5096003;28;20187;-52
2023/05/02 03:30:29;;;;;;;10.40;9.10;;;18.10;37.80;;;;;;5095511;28;20212;-52
2023/05/02 03:32:55;;;;;;;11.20;10.07;;;18.10;37.70;;;;;;5095393;28;20490;-51
2023/05/02 03:35:20;;;;;;;9.90;8.90;;;18.10;37.70;;;;;;5095524;28;20237;-52
2023/05/02 03:37:46;;;;;;;9.43;7.80;;;18.00;37.60;;;;;;5095454;28;20219;-52
2023/05/02 03:40:12;;;;;;;10.03;9.03;;;18.00;37.60;;;;;;5095512;28;20554;-52
2023/05/02 03:42:40;;;;;;;10.27;9.23;;;18.00;37.50;;;;;;5095279;28;20243;-52
2023/05/02 03:45:07;;;;;;;9.00;8.02;;;17.90;37.80;;;;;;5095278;28;20811;-52
2023/05/02 03:47:33;;;;;;;9.65;8.63;;;17.80;37.60;;;;;;5095608;28;20180;-52
2023/05/02 03:49:58;;;;;;;10.50;8.90;;;17.80;37.80;;;;;;5095194;28;20192;-52
2023/05/02 03:52:25;;;;;;;9.57;8.67;;;17.80;37.70;;;;;;5095249;28;20406;-52
2023/05/02 03:54:50;;;;;;;22.58;9.35;;;17.90;37.80;;;;;;5095263;28;20263;-52
2023/05/02 03:57:17;;;;;;;10.73;8.47;;;17.90;37.80;;;;;;5095097;28;20290;-52
2023/05/02 03:59:44;;;;;;;9.60;8.70;;;17.80;37.60;;;;;;5095269;28;20228;-52
2023/05/02 04:02:13;;;;;;;9.93;8.00;;;17.80;37.60;;;;;;5095149;28;20183;-52
2023/05/02 04:04:41;;;;;;;8.68;7.03;;;17.80;37.70;;;;;;5095032;28;20225;-52
2023/05/02 04:07:08;;;;;;;9.10;8.20;;;17.70;37.70;;;;;;5095034;28;20180;-52
2023/05/02 04:09:34;;;;;;;8.82;7.93;;;17.60;37.60;;;;;;5095140;28;20192;-52
2023/05/02 04:12:00;;;;;;;11.17;8.47;;;17.70;37.80;;;;;;5094595;28;20675;-52
2023/05/02 04:14:26;;;;;;;9.38;8.48;;;17.60;37.60;;;;;;5094743;28;20709;-52
2023/05/02 04:16:52;;;;;;;9.10;7.10;;;17.70;37.70;;;;;;5094854;28;20262;-52
2023/05/02 04:19:18;;;;;;;9.20;8.30;;;17.70;37.70;;;;;;5094657;28;20406;-52
2023/05/02 04:21:44;;;;;;;9.73;8.73;;;17.60;37.70;;;;;;5094452;28;20172;-52
2023/05/02 04:24:10;;;;;;;10.93;8.13;;;17.70;37.90;;;;;;5094824;28;20417;-52
2023/05/02 04:26:36;;;;;;;9.20;7.10;;;17.60;37.80;;;;;;5094457;28;20176;-52
2023/05/02 04:29:03;;;;;;;10.40;8.57;;;17.60;37.90;;;;;;5094009;28;20259;-52
2023/05/02 04:31:30;;;;;;;11.02;8.68;;;17.60;38.00;;;;;;5094280;28;20503;-52
2023/05/02 04:33:56;;;;;;;10.38;7.57;;;17.60;38.10;;;;;;5092943;28;20647;-54
2023/05/02 04:36:22;;;;;;;9.77;8.73;;;17.60;38.10;;;;;;5094499;28;20221;-51
2023/05/02 04:38:48;;;;;;;9.75;7.30;;;17.60;38.30;;;;;;5094347;28;20622;-53
2023/05/02 04:41:14;;;;;;;8.73;7.40;;;17.50;38.10;;;;;;5094151;28;20275;-51
2023/05/02 04:43:40;;;;;;;9.27;8.00;;;17.50;38.20;;;;;;5094255;28;20245;-51
2023/05/02 04:46:06;;;;;;;9.83;8.13;;;17.50;38.30;;;;;;5094242;28;20636;-53
2023/05/02 04:48:32;;;;;;;12.20;8.13;;;17.50;38.30;;;;;;5094130;28;20224;-50
2023/05/02 04:50:58;;;;;;;8.00;7.20;;;17.40;38.30;;;;;;5094121;28;20285;-53
2023/05/02 04:53:24;;;;;;;8.47;7.63;;;17.40;38.30;;;;;;5093853;28;20656;-50
2023/05/02 04:55:49;;;;;;;11.33;8.10;;;17.40;38.90;;;;;;5093979;28;20413;-53
2023/05/02 04:58:15;;;;;;;8.47;7.53;;;17.40;38.30;;;;;;5094181;28;20207;-53
2023/05/02 05:00:41;;;;;;;9.43;7.90;;;17.40;38.90;;;;;;5094200;28;20188;-50
2023/05/02 05:03:07;;;;;;;10.80;8.30;;;17.50;38.50;;;;;;5093756;28;21008;-50
2023/05/02 05:05:33;;;;;;;8.77;7.93;;;17.50;38.30;;;;;;5093889;28;20168;-52
2023/05/02 05:07:59;;;;;;;8.27;7.28;;;17.60;38.20;;;;;;5093817;28;20216;-52
2023/05/02 05:10:25;;;;;;;9.30;8.40;;;17.70;38.20;;;;;;5093557;28;20290;-53
2023/05/02 05:12:52;;;;;;;9.10;8.20;;;17.70;37.80;;;;;;5093424;28;20406;-53
2023/05/02 05:15:21;;;;;;;9.60;8.02;;;17.70;38.00;;;;;;5093767;28;20413;-50
2023/05/02 05:17:47;;;;;;;10.07;7.80;;;17.60;38.10;;;;;;5093567;28;20202;-51
2023/05/02 05:20:12;;;;;;;7.43;6.63;;;17.60;37.60;;;;;;5093549;28;20187;-53
2023/05/02 05:22:40;;;;;;;8.27;7.20;;;17.60;37.70;;;;;;5093369;28;20196;-50
2023/05/02 05:25:06;;;;;;;7.35;6.28;;;17.60;37.80;;;;;;5093333;28;20172;-50
2023/05/02 05:27:36;;;;;;;7.80;7.05;;;17.60;37.70;;;;;;5093543;28;20543;-52
2023/05/02 05:30:05;;;;;;;8.68;7.78;;;17.70;37.80;;;;;;5093384;28;20199;-50
2023/05/02 05:32:32;;;;;;;9.65;7.05;;;17.70;37.80;;;;;;5093110;28;20172;-50
2023/05/02 05:34:58;;;;;;;11.80;6.90;;;17.70;37.60;;;;;;5093204;28;20184;-53
2023/05/02 05:37:24;;;;;;;7.97;7.17;;;17.70;37.50;;;;;;5093293;28;20698;-53
2023/05/02 05:39:49;;;;;;;8.07;6.90;;;17.70;37.70;;;;;;5093319;28;20547;-51
2023/05/02 05:42:15;;;;;;;8.00;7.30;;;17.80;37.50;;;;;;5092923;28;20167;-50
2023/05/02 05:44:41;;;;;;;7.47;6.70;;;17.80;37.50;;;;;;5093218;28;20168;-53
2023/05/02 05:47:07;;;;;;;8.13;6.30;;;17.80;37.40;;;;;;5093043;28;20441;-53
2023/05/02 05:49:35;;;;;;;7.63;6.90;;;17.80;37.20;;;;;;5092909;28;20195;-50
2023/05/02 05:52:01;;;;;;;8.27;7.40;;;17.80;37.40;;;;;;5092579;28;20305;-53
2023/05/02 05:54:27;;;;;;;7.28;6.57;;;17.90;37.30;;;;;;5093201;28;20196;-53
2023/05/02 05:56:52;;;;;;;8.67;7.20;;;17.90;37.30;;;;;;5092853;28;20191;-50
2023/05/02 05:59:18;;;;;;;7.17;6.43;;;18.00;36.90;;;;;;5092970;28;20449;-53
2023/05/02 06:01:44;;;;;;;7.40;6.70;;;18.00;37.00;;;;;;5092757;28;20171;-51
2023/05/02 06:04:10;;;;;;;9.07;7.37;;;18.10;37.30;;;;;;5092565;28;20409;-50
2023/05/02 06:06:36;;;;;;;8.50;7.20;;;18.20;37.20;;;;;;5092557;28;20168;-52
2023/05/02 06:09:02;;;;;;;10.25;6.97;;;18.20;36.30;;;;;;5092984;28;20191;-50
2023/05/02 06:11:28;;;;;;;9.60;6.80;;;18.20;36.20;;;;;;5092499;28;20188;-50
2023/05/02 06:13:53;;;;;;;7.43;6.63;;;18.30;36.10;;;;;;5092646;28;20536;-52
2023/05/02 06:16:19;;;;;;;8.87;7.30;;;18.30;35.50;;;;;;5092588;28;20648;-51
2023/05/02 06:18:45;;;;;;;10.00;7.00;;;18.30;36.00;;;;;;5092299;28;20226;-52
2023/05/02 06:21:11;;;;;;;8.43;6.20;;;18.40;35.90;;;;;;5092272;28;20418;-50
2023/05/02 06:23:38;;;;;;;6.90;5.68;;;18.30;35.90;;;;;;5092191;28;20266;-50
2023/05/02 06:26:04;;;;;;;6.63;5.97;;;18.30;35.50;;;;;;5092617;28;20176;-51
2023/05/02 06:28:30;;;;;;;7.15;6.53;;;18.30;36.40;;;;;;5092469;28;20175;-53
2023/05/02 06:31:04;;;;;;;7.32;5.88;;;18.40;35.90;;;;;;5092180;28;20226;-53
2023/05/02 06:33:30;;;;;;;9.70;6.22;;;18.50;35.80;;;;;;5092042;28;20647;-51
2023/05/02 06:35:57;;;;;;;6.07;5.28;;;18.50;35.20;;;;;;5092145;28;20203;-53
2023/05/02 06:38:23;;;;;;;7.93;5.55;;;18.60;35.50;;;;;;5092470;28;20250;-51
2023/05/02 06:40:49;;;;;;;8.00;6.87;;;18.70;35.80;;;;;;5092236;28;20842;-50
2023/05/02 06:43:15;;;;;;;7.95;6.40;;;18.80;35.40;;;;;;5092051;28;20406;-53
2023/05/02 06:45:41;;;;;;;5.97;5.43;;;18.80;35.10;;;;;;5092086;28;20176;-50
2023/05/02 06:48:07;;;;;;;5.07;4.57;;;18.80;34.50;;;;;;5091951;28;20409;-51
2023/05/02 06:50:33;;;;;;;7.05;6.25;;;18.80;35.00;;;;;;5091797;28;20516;-52
2023/05/02 06:52:59;;;;;;;6.15;5.20;;;18.80;34.60;;;;;;5091675;28;20167;-52
2023/05/02 06:55:25;;;;;;;9.80;4.90;;;18.80;34.80;;;;;;5091945;28;20263;-50
2023/05/02 06:57:52;;;;;;;6.88;6.20;;;18.90;35.00;;;;;;5091958;28;20449;-52
2023/05/02 07:00:19;;;;;;;5.38;4.88;;;19.00;35.30;;;;;;5091967;28;20698;-52
2023/05/02 07:02:47;;;;;;;8.27;4.88;;;19.00;34.90;;;;;;5091885;28;20633;-53
2023/05/02 07:05:14;;;;;;;6.30;5.68;;;19.00;34.90;;;;;;5091945;28;20175;-53
2023/05/02 07:07:41;;;;;;;8.98;6.20;;;19.10;35.10;;;;;;5092038;28;20179;-53
2023/05/02 07:10:08;;;;;;;7.13;6.00;;;19.10;34.50;;;;;;5092021;28;20277;-53
2023/05/02 07:12:33;;;;;;;6.68;5.93;;;19.20;34.90;;;;;;5091678;28;20249;-50
2023/05/02 07:14:59;;;;;;;9.97;6.57;;;19.20;34.00;;;;;;5091955;28;20603;-52
2023/05/02 07:17:25;;;;;;;7.30;6.27;;;19.20;34.80;;;;;;5092000;28;20585;-52
2023/05/02 07:19:52;;;;;;;9.37;5.77;;;19.20;34.90;;;;;;5092011;28;20528;-50
2023/05/02 07:22:18;;;;;;;6.70;5.18;;;19.30;34.80;;;;;;5091926;28;20406;-52
2023/05/02 07:24:43;;;;;;;7.33;6.10;;;19.30;33.90;;;;;;5091876;28;20249;-53
2023/05/02 07:27:11;;;;;;;6.17;4.63;;;19.20;34.30;;;;;;5091712;28;20401;-52
2023/05/02 07:29:37;;;;;;;7.78;6.13;;;19.20;34.50;;;;;;5091698;28;20195;-52
2023/05/02 07:32:03;;;;;;;5.93;5.35;;;19.30;34.70;;;;;;5091213;28;20282;-52
2023/05/02 07:34:29;;;;;;;5.60;4.97;;;19.30;34.10;;;;;;5091941;28;20168;-52
2023/05/02 07:36:56;;;;;;;6.80;6.00;;;19.30;34.10;;;;;;5091633;28;20531;-52
2023/05/02 07:39:23;;;;;;;9.35;5.90;;;19.30;34.50;;;;;;5091563;28;20481;-52
2023/05/02 07:41:52;;;;;;;9.52;6.60;;;19.20;34.40;;;;;;5091654;28;20589;-52
2023/05/02 07:44:18;;;;;;;6.40;5.80;;;19.20;34.60;;;;;;5091637;28;20168;-52
2023/05/02 07:46:44;;;;;;;13.32;6.25;;;19.20;34.50;;;;;;5091476;28;20199;-52
2023/05/02 07:49:09;;;;;;;6.57;5.97;;;19.10;34.90;;;;;;5091457;28;20575;-52
2023/05/02 07:51:35;;;;;;;8.70;6.57;;;18.90;35.20;;;;;;5091812;28;20259;-52
2023/05/02 07:54:01;;;;;;;9.07;4.73;;;18.80;35.50;;;;;;5091639;28;20666;-52
2023/05/02 07:56:29;;;;;;;10.80;7.00;;;18.90;35.80;;;;;;5091503;28;20168;-52
2023/05/02 07:58:54;;;;;;;5.97;5.30;;;18.70;35.90;;;;;;5091378;28;20207;-52
2023/05/02 08:01:20;;;;;;;7.23;6.53;;;18.70;36.40;;;;;;5091464;28;20191;-52
2023/05/02 08:03:47;;;;;;;8.60;5.50;;;18.80;36.40;;;;;;5092956;28;20179;-52
2023/05/02 08:06:13;;;;;;;8.25;6.65;;;18.90;36.10;;;;;;5094969;28;20627;-52
2023/05/02 08:08:38;;;;;;;6.20;5.60;;;18.90;36.20;;;;;;5094950;28;20203;-52
2023/05/02 08:11:04;;;;;;;10.10;6.03;;;19.00;36.30;;;;;;5094836;28;20287;-52
2023/05/02 08:13:30;;;;;;;6.20;5.47;;;19.20;36.60;;;;;;5094686;28;20182;-52
2023/05/02 08:15:57;;;;;;;7.23;5.77;;;19.30;36.30;;;;;;5094740;28;20188;-52
2023/05/02 08:18:26;;;;;;;7.05;5.47;;;19.50;36.10;;;;;;5094870;28;20215;-52
2023/05/02 08:20:53;;;;;;;8.65;6.15;;;19.70;35.90;;;;;;5094814;28;20200;-52
2023/05/02 08:23:18;;;;;;;5.90;5.20;;;19.90;35.70;;;;;;5094556;28;20172;-52
2023/05/02 08:25:44;;;;;;;6.40;5.60;;;20.10;35.20;;;;;;5094699;28;20221;-52
2023/05/02 08:28:10;;;;;;;9.83;5.93;;;20.20;35.40;;;;;;5094598;28;20184;-53
2023/05/02 08:30:36;;;;;;;6.40;5.23;;;20.40;35.30;;;;;;5093327;28;20605;-52
2023/05/02 08:33:01;;;;;;;5.87;4.90;;;20.50;34.50;;;;;;5094644;28;20271;-52
2023/05/02 08:35:30;;;;;;;9.63;5.60;;;20.70;34.60;;;;;;5094740;28;20172;-53
2023/05/02 08:37:56;;;;;;;7.30;5.83;;;20.90;33.70;;;;;;5094626;28;20204;-50
2023/05/02 08:40:22;;;;;;;7.70;5.67;;;21.00;33.20;;;;;;5094346;28;20509;-53
2023/05/02 08:42:48;;;;;;;8.80;5.07;;;21.00;33.00;;;;;;5094327;28;20183;-53
2023/05/02 08:45:14;;;;;;;6.68;5.38;;;20.90;32.70;;;;;;5094453;28;20180;-50
2023/05/02 08:47:41;;;;;;;7.22;5.88;;;20.70;32.60;;;;;;5094439;28;20532;-51
2023/05/02 08:50:10;;;;;;;8.50;6.43;;;20.70;33.30;;;;;;5094170;28;20215;-53
2023/05/02 08:52:37;;;;;;;8.18;6.20;;;20.70;33.50;;;;;;5093898;28;20409;-52
2023/05/02 08:55:05;;;;;;;6.15;5.25;;;20.70;33.50;;;;;;5094077;28;20187;-50
2023/05/02 08:57:31;;;;;;;5.67;4.73;;;20.60;33.60;;;;;;5093851;28;20196;-53
2023/05/02 08:59:58;;;;;;;6.37;5.40;;;20.60;33.80;;;;;;5093931;28;20789;-53
2023/05/02 09:02:49;;;;;;;6.05;4.60;;;20.70;34.50;;;;;;5093679;28;20405;-51
2023/05/02 09:05:19;;;;;;;6.57;5.53;;;21.00;33.80;;;;;;5093866;28;20570;-51
2023/05/02 09:07:47;;;;;;;5.57;4.93;;;21.20;33.60;;;;;;5094114;28;20160;-53
2023/05/02 09:10:14;;;;;;;6.00;5.28;;;21.30;31.70;;;;;;5093734;28;20624;-51
2023/05/02 09:12:40;;;;;;;7.70;5.25;;;21.10;31.00;;;;;;5093519;28;20175;-51
2023/05/02 09:15:10;;;;;;;8.20;5.30;;;21.00;31.50;;;;;;5093248;28;20188;-54
2023/05/02 09:17:44;;;;;;;6.75;4.63;;;21.00;32.90;;;;;;5093597;28;20457;-52
2023/05/02 09:20:15;;;;;;;7.33;4.80;;;21.20;33.20;;;;;;5092244;28;20191;-51
2023/05/02 09:22:51;;;;;;;7.57;5.53;;;21.30;32.90;;;;;;5093468;28;20390;-50
2023/05/02 09:25:18;;;;;;;9.43;6.55;;;21.40;30.90;;;;;;5093701;28;20417;-51
2023/05/02 09:27:55;;;;;;;7.10;6.20;;;21.30;31.90;;;;;;5093757;28;20183;-51
2023/05/02 09:30:23;;;;;;;11.57;5.60;;;21.50;32.60;;;;;;5093213;28;20437;-54
2023/05/02 09:32:50;;;;;;;8.50;5.27;;;21.60;32.70;;;;;;5093010;28;20458;-53
2023/05/02 09:35:22;;;;;;;7.90;6.90;;;21.80;32.10;;;;;;5093644;28;20450;-51
2023/05/02 09:37:53;;;;;;;6.40;5.80;;;21.90;31.10;;;;;;5093224;28;20445;-53
2023/05/02 09:40:19;;;;;;;10.60;8.03;;;21.80;31.00;;;;;;5093211;28;20567;-54
2023/05/02 09:42:45;;;;;;;8.43;7.40;;;21.70;31.30;;;;;;5092968;28;20496;-50
2023/05/02 09:45:24;;;;;;;7.60;6.27;;;21.80;32.30;;;;;;5092966;28;20402;-53
2023/05/02 09:47:51;;;;;;;8.17;6.27;;;22.00;32.10;;;;;;5093305;28;20479;-51
2023/05/02 09:50:33;;;;;;;9.53;7.63;;;22.00;31.70;;;;;;5093258;28;20516;-53
2023/05/02 09:53:17;;;;;;;10.30;6.47;;;22.10;32.10;;;;;;5092821;28;20414;-50
2023/05/02 09:55:43;;;;;;;8.77;7.87;;;22.20;32.70;;;;;;5092865;28;20386;-53
2023/05/02 09:58:21;;;;;;;9.70;8.57;;;22.40;32.10;;;;;;5093055;28;20522;-52
2023/05/02 10:00:48;;;;;;;12.00;9.10;;;22.60;31.60;;;;;;5092883;28;20191;-50
2023/05/02 10:03:18;;;;;;;8.20;7.40;;;22.60;31.00;;;;;;5092648;28;20402;-53
2023/05/02 10:05:45;;;;;;;10.10;8.80;;;22.60;31.30;;;;;;5092972;28;20500;-51
2023/05/02 10:08:12;;;;;;;13.20;8.37;;;22.60;30.80;;;;;;5092567;28;20441;-53
2023/05/02 10:10:40;;;;;;;9.00;8.00;;;22.50;30.90;;;;;;5092653;28;20433;-52
2023/05/02 10:13:07;;;;;;;8.90;7.57;;;22.50;30.70;;;;;;5092539;28;20463;-51
2023/05/02 10:15:36;;;;;;;10.40;9.30;;;22.40;31.30;;;;;;5092519;28;20410;-52
2023/05/02 10:18:07;;;;;;;9.93;7.60;;;22.30;30.90;;;;;;5092787;28;20487;-53
2023/05/02 10:20:42;;;;;;;9.60;8.57;;;22.20;31.30;;;;;;5092503;28;20428;-50
2023/05/02 10:23:07;;;;;;;10.03;8.90;;;22.10;30.50;;;;;;5092507;28;20405;-51
2023/05/02 10:25:33;;;;;;;9.47;8.47;;;22.00;31.20;;;;;;5092101;28;20832;-53
2023/05/02 10:27:59;;;;;;;9.47;8.47;;;22.00;31.50;;;;;;5092211;28;20160;-51
2023/05/02 10:30:26;;;;;;;12.90;9.07;;;22.10;31.80;;;;;;5092412;28;20449;-51
2023/05/02 10:32:53;;;;;;;9.10;8.20;;;22.20;31.70;;;;;;5092107;28;20478;-53
2023/05/02 10:35:20;;;;;;;9.33;8.43;;;22.20;31.80;;;;;;5092414;28;20409;-51
2023/05/02 10:37:48;;;;;;;11.23;9.83;;;22.30;31.80;;;;;;5092237;28;20437;-51
2023/05/02 10:40:14;;;;;;;9.43;8.43;;;22.40;32.30;;;;;;5092138;28;20425;-53
2023/05/02 10:42:44;;;;;;;11.77;9.40;;;22.50;32.10;;;;;;5091971;28;20918;-51
2023/05/02 10:45:31;;;;;;;13.97;10.17;;;22.50;31.00;;;;;;5092173;28;20444;-53
2023/05/02 10:48:25;;;;;;;11.17;10.00;;;22.40;31.50;;;;;;5091839;28;20420;-53
2023/05/02 10:50:55;;;;;;;11.17;9.03;;;22.30;31.30;;;;;;5092373;28;20414;-51
2023/05/02 10:53:24;;;;;;;10.57;9.50;;;22.20;32.20;;;;;;5091982;28;20406;-53
2023/05/02 10:56:13;;;;;;;11.20;9.00;;;22.20;32.40;;;;;;5092114;28;20583;-50
2023/05/02 10:58:39;;;;;;;11.90;9.77;;;22.30;32.50;;;;;;5091893;28;20485;-53
2023/05/02 11:01:28;;;;;;;12.93;11.63;;;22.30;32.10;;;;;;5091873;28;20414;-51
2023/05/02 11:03:57;;;;;;;12.70;11.13;;;22.30;31.60;;;;;;5091218;28;20775;-51
2023/05/02 11:06:34;;;;;;;19.53;11.83;;;22.20;31.20;;;;;;5092067;28;20727;-53
2023/05/02 11:09:15;;;;;;;13.10;11.40;;;22.10;32.50;;;;;;5091969;28;20397;-53
2023/05/02 11:11:43;;;;;;;11.67;10.50;;;21.40;31.80;;;;;;5091931;28;20398;-51
2023/05/02 11:14:10;;;;;;;13.93;10.87;;;22.00;32.50;;;;;;5092148;28;20794;-53
2023/05/02 11:17:04;;;;;;;11.10;9.73;;;22.00;31.70;;;;;;5092213;28;20735;-53
2023/05/02 11:19:56;;;;;;;15.50;11.27;;;22.00;32.80;;;;;;5091967;28;20450;-51
2023/05/02 11:22:26;;;;;;;11.87;10.70;;;22.00;31.30;;;;;;5090299;28;20410;-53
2023/05/02 11:24:53;;;;;;;13.23;11.40;;;22.00;32.50;;;;;;5091739;28;20398;-53
2023/05/02 11:27:32;;;;;;;13.00;9.80;;;22.20;33.70;;;;;;5091661;28;20398;-53
2023/05/02 11:30:05;;;;;;;13.00;10.27;;;22.70;32.60;;;;;;5091510;28;20497;-53
2023/05/02 11:32:52;;;;;;;14.50;10.33;;;23.10;32.60;;;;;;5091700;28;20398;-51
2023/05/02 11:35:25;;;;;;;12.27;9.33;;;23.30;32.30;;;;;;5091660;28;20382;-53
2023/05/02 11:37:59;;;;;;;13.57;10.27;;;23.60;32.00;;;;;;5093185;28;21149;-51
2023/05/02 11:40:26;;;;;;;13.07;11.67;;;23.80;30.50;;;;;;5095418;28;20410;-53
2023/05/02 11:42:52;;;;;;;11.07;8.37;;;23.80;29.40;;;;;;5095404;28;20402;-53
2023/05/02 11:45:19;;;;;;;13.23;10.57;;;23.70;31.40;;;;;;5095325;28;20410;-51
2023/05/02 11:47:46;;;;;;;14.13;9.43;;;23.60;30.90;;;;;;5095383;28;20505;-54
2023/05/02 11:50:13;;;;;;;10.80;8.50;;;23.60;30.20;;;;;;5095198;28;20947;-53
2023/05/02 11:52:40;;;;;;;10.03;9.00;;;23.50;30.60;;;;;;5095055;28;20437;-51
2023/05/02 11:55:09;;;;;;;11.30;8.50;;;23.40;31.40;;;;;;5095217;28;20485;-53
2023/05/02 11:57:35;;;;;;;10.30;9.20;;;23.50;31.70;;;;;;5095079;28;20453;-53
2023/05/02 12:00:02;;;;;;;15.00;9.70;;;23.60;30.80;;;;;;5095068;28;20425;-51
2023/05/02 12:02:43;;;;;;;11.83;10.57;;;23.60;30.40;;;;;;5094994;28;20406;-53
2023/05/02 12:05:10;;;;;;;10.73;9.63;;;23.40;29.50;;;;;;5095055;28;20402;-53
2023/05/02 12:07:44;;;;;;;13.90;9.87;;;23.20;29.70;;;;;;5095006;28;20470;-50
2023/05/02 12:10:11;;;;;;;11.53;10.40;;;23.10;31.60;;;;;;5094783;28;20436;-53
2023/05/02 12:12:40;;;;;;;10.83;9.83;;;23.00;31.50;;;;;;5094652;28;20489;-51
2023/05/02 12:15:08;;;;;;;11.20;10.07;;;23.00;32.10;;;;;;5095195;28;20410;-53
2023/05/02 12:17:37;;;;;;;13.40;12.10;;;22.90;31.80;;;;;;5094900;28;20561;-53
2023/05/02 12:20:05;;;;;;;12.23;10.63;;;22.80;32.30;;;;;;5094691;28;20426;-51
2023/05/02 12:22:31;;;;;;;12.30;9.97;;;22.80;32.50;;;;;;5094498;28;20449;-53
2023/05/02 12:24:57;;;;;;;10.93;9.83;;;22.80;32.20;;;;;;5094723;28;20487;-53
2023/05/02 12:27:23;;;;;;;11.00;9.30;;;22.70;32.40;;;;;;5094547;28;20471;-54
2023/05/02 12:29:49;;;;;;;13.60;9.87;;;22.80;32.70;;;;;;5094437;28;20414;-51
2023/05/02 12:32:26;;;;;;;9.60;8.60;;;22.90;32.80;;;;;;5094218;28;20442;-53
2023/05/02 12:34:51;;;;;;;10.40;8.70;;;22.90;32.20;;;;;;5094518;28;20527;-53
2023/05/02 12:37:28;;;;;;;10.00;9.03;;;23.10;32.10;;;;;;5094475;28;20402;-53
2023/05/02 12:39:55;;;;;;;9.47;8.50;;;23.30;31.50;;;;;;5094286;28;20698;-54
2023/05/02 12:42:24;;;;;;;10.77;9.77;;;23.40;31.60;;;;;;5094211;28;20489;-52
2023/05/02 12:44:51;;;;;;;9.97;8.30;;;23.50;32.00;;;;;;5094256;28;20408;-51
2023/05/02 12:47:18;;;;;;;9.73;8.73;;;23.50;31.80;;;;;;5094188;28;20493;-53
2023/05/02 12:49:50;;;;;;;9.97;8.97;;;23.40;30.60;;;;;;5093703;28;20421;-52